Time;durP1;ratioP1;P1;durP2;ratioP2;P2;SDS_P1;SDS_P2;PMS_P1;PMS_P2;Temp;Humidity;BMP_temperature;BMP_pressure;BME280_temperature;BME280_humidity;BME280_pressure;Samples;Min_cycle;Max_cycle;Signal;HPM_P1;HPM_P2
2021/12/27 00:02:08;;;;;;;21.17;12.75;;;1.10;99.90;;;;;;5057187;28;20017;-81
2021/12/27 00:04:34;;;;;;;18.88;11.27;;;1.10;99.90;;;;;;5057290;28;20024;-81
2021/12/27 00:06:59;;;;;;;17.50;11.18;;;1.00;99.90;;;;;;5056053;28;20495;-81
2021/12/27 00:09:25;;;;;;;17.85;11.35;;;1.00;99.90;;;;;;5056373;28;20033;-81
2021/12/27 00:11:50;;;;;;;18.60;11.35;;;1.00;99.90;;;;;;5055779;28;20074;-81
2021/12/27 00:14:16;;;;;;;17.98;10.85;;;1.00;99.90;;;;;;5057102;28;20029;-82
2021/12/27 00:16:42;;;;;;;17.38;10.70;;;1.00;99.90;;;;;;5056408;28;20032;-81
2021/12/27 00:19:08;;;;;;;17.15;10.73;;;1.00;99.90;;;;;;5056885;28;20048;-82
2021/12/27 00:21:34;;;;;;;19.00;11.60;;;1.00;99.90;;;;;;5057224;28;20104;-82
2021/12/27 00:24:00;;;;;;;16.30;10.82;;;1.00;99.90;;;;;;5051302;28;20056;-81
2021/12/27 00:26:26;;;;;;;19.52;10.98;;;1.00;99.90;;;;;;5037069;28;20536;-81
2021/12/27 00:28:51;;;;;;;18.75;10.88;;;1.00;99.90;;;;;;5035384;28;20024;-81
2021/12/27 00:31:17;;;;;;;18.40;11.07;;;0.90;99.90;;;;;;5037225;28;20469;-81
2021/12/27 00:33:43;;;;;;;20.30;12.13;;;0.90;99.90;;;;;;5036938;28;20440;-81
2021/12/27 00:36:09;;;;;;;21.35;12.23;;;0.90;99.90;;;;;;5037114;28;20385;-82
2021/12/27 00:38:34;;;;;;;21.88;12.73;;;0.90;99.90;;;;;;5036458;28;20072;-81
2021/12/27 00:41:00;;;;;;;21.88;12.63;;;1.00;99.90;;;;;;5036796;28;20034;-81
2021/12/27 00:43:26;;;;;;;19.70;11.60;;;1.00;99.90;;;;;;5036434;28;20033;-81
2021/12/27 00:45:51;;;;;;;19.02;11.20;;;1.00;99.90;;;;;;5035925;28;20543;-81
2021/12/27 00:48:18;;;;;;;18.30;11.18;;;1.00;99.90;;;;;;5036455;28;20049;-81
2021/12/27 00:50:45;;;;;;;15.82;9.98;;;1.00;99.90;;;;;;5036368;28;20022;-81
2021/12/27 00:53:10;;;;;;;18.83;10.55;;;1.00;99.90;;;;;;5036484;28;20385;-81
2021/12/27 00:55:36;;;;;;;16.95;10.05;;;1.00;99.90;;;;;;5036287;28;20018;-81
2021/12/27 00:58:02;;;;;;;19.15;10.93;;;1.00;99.90;;;;;;5056168;28;20025;-81
2021/12/27 01:00:28;;;;;;;17.45;10.98;;;1.00;99.90;;;;;;5054846;28;20116;-81
2021/12/27 01:02:55;;;;;;;19.77;10.57;;;1.00;99.90;;;;;;5055463;28;20108;-81
2021/12/27 01:05:23;;;;;;;16.23;10.38;;;1.00;99.90;;;;;;5053446;28;20021;-81
2021/12/27 01:07:50;;;;;;;19.20;11.02;;;1.00;99.90;;;;;;5051635;28;20045;-81
2021/12/27 01:10:59;;;;;;;20.00;11.35;;;1.00;99.90;;;;;;5056052;28;20025;-81
2021/12/27 01:13:42;;;;;;;19.17;11.30;;;1.00;99.90;;;;;;5055724;28;20057;-81
2021/12/27 01:16:11;;;;;;;19.67;11.52;;;1.00;99.90;;;;;;5055939;28;20021;-81
2021/12/27 01:18:48;;;;;;;19.38;11.00;;;1.00;99.90;;;;;;5054705;28;20039;-81
2021/12/27 01:21:17;;;;;;;18.63;10.90;;;1.00;99.90;;;;;;5052712;28;20049;-81
2021/12/27 01:23:43;;;;;;;19.15;11.15;;;0.90;99.90;;;;;;5047613;28;20080;-81
2021/12/27 01:26:09;;;;;;;19.15;11.40;;;0.90;99.90;;;;;;5054798;28;20021;-81
2021/12/27 01:28:35;;;;;;;20.60;12.40;;;0.90;99.90;;;;;;5054799;28;20029;-81
2021/12/27 01:31:01;;;;;;;24.83;13.77;;;0.90;99.90;;;;;;5054662;28;20033;-81
2021/12/27 01:33:27;;;;;;;21.85;12.75;;;0.90;99.90;;;;;;5055726;28;20025;-81
2021/12/27 01:35:54;;;;;;;22.45;12.45;;;0.90;99.90;;;;;;5055528;28;20056;-81
2021/12/27 01:38:20;;;;;;;18.60;11.57;;;0.80;99.90;;;;;;5045621;28;20061;-81
2021/12/27 01:40:48;;;;;;;21.63;11.98;;;0.80;99.90;;;;;;5035706;28;20025;-82
2021/12/27 01:43:22;;;;;;;20.63;11.98;;;0.80;99.90;;;;;;5034239;28;20026;-82
2021/12/27 01:45:53;;;;;;;18.00;10.70;;;0.80;99.90;;;;;;5035763;28;20018;-82
2021/12/27 01:48:23;;;;;;;20.15;11.52;;;0.90;99.90;;;;;;5035964;28;20462;-82
2021/12/27 01:50:51;;;;;;;21.67;11.90;;;0.80;99.90;;;;;;5034575;28;20044;-81
2021/12/27 01:53:18;;;;;;;20.77;11.25;;;0.90;99.90;;;;;;5036152;28;20033;-82
2021/12/27 01:55:44;;;;;;;19.23;11.07;;;0.80;99.90;;;;;;5037481;28;20112;-81
2021/12/27 01:58:11;;;;;;;17.90;10.50;;;0.90;99.90;;;;;;5035856;28;20078;-82
2021/12/27 02:00:39;;;;;;;19.35;11.05;;;0.80;99.90;;;;;;5034678;28;20029;-82
2021/12/27 02:03:05;;;;;;;17.23;10.70;;;0.80;99.90;;;;;;5035728;28;20026;-82
2021/12/27 02:05:32;;;;;;;18.55;10.82;;;0.80;99.90;;;;;;5034278;28;20037;-81
2021/12/27 02:07:57;;;;;;;18.05;10.73;;;0.80;99.90;;;;;;5035516;28;20485;-82
2021/12/27 02:10:23;;;;;;;18.00;10.70;;;0.90;99.90;;;;;;5043976;28;20029;-82
2021/12/27 02:12:51;;;;;;;18.75;10.75;;;0.90;99.90;;;;;;5054322;28;20102;-82
2021/12/27 02:15:16;;;;;;;16.48;10.15;;;0.90;99.90;;;;;;5056138;28;20025;-82
2021/12/27 02:17:43;;;;;;;17.90;11.23;;;0.90;99.90;;;;;;5053984;28;20035;-82
2021/12/27 02:20:23;;;;;;;17.38;9.93;;;0.80;99.90;;;;;;5055624;28;20385;-82
2021/12/27 02:22:51;;;;;;;17.45;10.55;;;0.80;99.90;;;;;;5055264;28;20021;-82
2021/12/27 02:25:17;;;;;;;20.35;10.93;;;0.80;99.90;;;;;;5055340;28;20017;-82
2021/12/27 02:27:43;;;;;;;20.30;12.13;;;0.80;99.90;;;;;;5053554;28;20025;-82
2021/12/27 02:30:12;;;;;;;18.73;11.25;;;0.80;99.90;;;;;;5055012;28;20033;-82
2021/12/27 02:33:05;;;;;;;18.50;11.63;;;0.80;99.90;;;;;;5070329;28;20485;-82
2021/12/27 02:35:34;;;;;;;18.42;10.80;;;0.80;99.90;;;;;;5052821;28;20041;-82
2021/12/27 02:38:02;;;;;;;16.15;9.95;;;0.80;99.90;;;;;;5055267;28;20025;-82
2021/12/27 02:40:30;;;;;;;22.85;12.60;;;0.80;99.90;;;;;;5055302;28;20384;-82
2021/12/27 02:43:04;;;;;;;21.15;11.25;;;0.80;99.90;;;;;;5045129;28;20103;-82
2021/12/27 02:45:32;;;;;;;19.90;11.73;;;0.80;99.90;;;;;;5033702;28;20026;-82
2021/12/27 02:47:58;;;;;;;19.70;11.38;;;0.70;99.90;;;;;;5036487;28;20022;-82
2021/12/27 02:50:25;;;;;;;17.52;10.88;;;0.70;99.90;;;;;;5036245;28;20049;-82
2021/12/27 02:52:51;;;;;;;21.23;11.82;;;0.70;99.90;;;;;;5036303;28;20029;-82
2021/12/27 02:55:18;;;;;;;19.70;11.10;;;0.60;99.90;;;;;;5036057;28;20381;-82
2021/12/27 02:57:45;;;;;;;18.88;10.60;;;0.60;99.90;;;;;;5034948;28;20071;-81
2021/12/27 03:00:17;;;;;;;19.23;10.70;;;0.60;99.90;;;;;;5035956;28;20072;-82
2021/12/27 03:02:45;;;;;;;17.17;10.00;;;0.70;99.90;;;;;;5034507;28;20021;-82
2021/12/27 03:05:12;;;;;;;18.23;10.93;;;0.70;99.90;;;;;;5035687;28;20026;-82
2021/12/27 03:07:40;;;;;;;17.15;9.80;;;0.70;99.90;;;;;;5034516;28;20033;-82
2021/12/27 03:10:07;;;;;;;17.52;10.50;;;0.70;99.90;;;;;;5033919;28;20052;-82
2021/12/27 03:12:33;;;;;;;17.17;10.25;;;0.70;99.90;;;;;;5034085;28;20599;-82
2021/12/27 03:14:59;;;;;;;17.95;10.63;;;0.80;99.90;;;;;;5044589;28;20033;-82
2021/12/27 03:17:24;;;;;;;18.30;10.43;;;0.80;99.90;;;;;;5054841;28;20155;-82
2021/12/27 03:19:50;;;;;;;18.90;10.50;;;0.80;99.90;;;;;;5054569;28;20112;-82
2021/12/27 03:22:16;;;;;;;17.52;10.75;;;0.80;99.90;;;;;;5053188;28;20049;-83
2021/12/27 03:24:41;;;;;;;17.88;11.20;;;0.80;99.90;;;;;;5054122;28;20017;-83
2021/12/27 03:27:07;;;;;;;19.40;10.25;;;0.70;99.90;;;;;;5052733;28;20439;-82
2021/12/27 03:29:33;;;;;;;19.33;11.02;;;0.70;99.90;;;;;;5051918;28;20025;-82
2021/12/27 03:31:59;;;;;;;18.60;11.05;;;0.70;99.90;;;;;;5034489;28;20026;-83
2021/12/27 03:34:25;;;;;;;17.80;10.35;;;0.70;99.90;;;;;;5033716;28;20075;-83
2021/12/27 03:36:51;;;;;;;17.73;9.85;;;0.70;99.90;;;;;;5032754;28;20117;-83
2021/12/27 03:39:16;;;;;;;17.23;10.68;;;0.70;99.90;;;;;;5033559;28;20026;-83
2021/12/27 03:41:42;;;;;;;18.00;10.68;;;0.70;99.90;;;;;;5033766;28;20037;-83
2021/12/27 03:44:08;;;;;;;18.42;11.32;;;0.60;99.90;;;;;;5033746;28;20030;-83
2021/12/27 03:46:34;;;;;;;17.48;10.10;;;0.60;99.90;;;;;;5039015;28;20047;-83
2021/12/27 03:48:59;;;;;;;15.48;9.98;;;0.60;99.90;;;;;;5052304;28;20025;-83
2021/12/27 03:51:25;;;;;;;14.40;8.90;;;0.60;99.90;;;;;;5053769;28;20024;-83
2021/12/27 03:53:52;;;;;;;15.20;9.20;;;0.50;99.90;;;;;;5053777;28;20179;-83
2021/12/27 03:56:22;;;;;;;16.65;10.68;;;0.60;99.90;;;;;;5053610;28;20100;-83
2021/12/27 03:58:58;;;;;;;19.17;11.10;;;0.60;99.90;;;;;;5052834;28;20040;-83
2021/12/27 04:01:26;;;;;;;20.30;11.90;;;0.60;99.90;;;;;;5052657;28;20096;-83
2021/12/27 04:03:55;;;;;;;22.40;12.20;;;0.60;99.90;;;;;;5034470;28;20022;-83
2021/12/27 04:06:22;;;;;;;19.42;11.80;;;0.60;99.90;;;;;;5033618;28;20057;-83
2021/12/27 04:08:49;;;;;;;18.42;10.90;;;0.50;99.90;;;;;;5032255;28;20394;-83
2021/12/27 04:11:15;;;;;;;18.08;10.75;;;0.50;99.90;;;;;;5032789;28;20029;-83
2021/12/27 04:13:41;;;;;;;19.17;11.10;;;0.50;99.90;;;;;;5033401;28;20017;-83
2021/12/27 04:16:07;;;;;;;17.80;10.68;;;0.50;99.90;;;;;;5032219;28;20022;-83
2021/12/27 04:18:33;;;;;;;15.27;9.60;;;0.50;99.90;;;;;;5039950;28;20036;-83
2021/12/27 04:20:58;;;;;;;16.67;9.27;;;0.50;99.90;;;;;;5052880;28;20481;-83
2021/12/27 04:23:24;;;;;;;14.43;9.25;;;0.50;99.90;;;;;;5057981;28;20346;-83
2021/12/27 04:25:50;;;;;;;14.23;9.07;;;0.50;99.90;;;;;;5055941;28;20017;-83
2021/12/27 04:28:17;;;;;;;15.75;9.25;;;0.50;99.90;;;;;;5055960;28;20159;-83
2021/12/27 04:30:43;;;;;;;14.95;8.55;;;0.50;99.90;;;;;;5057240;28;20024;-83
2021/12/27 04:33:09;;;;;;;14.23;8.90;;;0.50;99.90;;;;;;5057895;28;20052;-83
2021/12/27 04:35:35;;;;;;;14.27;8.77;;;0.60;99.90;;;;;;5057600;28;20595;-83
2021/12/27 04:38:01;;;;;;;14.02;8.52;;;0.60;99.90;;;;;;5057271;28;20040;-83
2021/12/27 04:40:30;;;;;;;17.75;9.25;;;0.60;99.90;;;;;;5057201;28;20059;-83
2021/12/27 04:43:05;;;;;;;15.13;9.73;;;0.60;99.90;;;;;;5057349;28;20045;-83
2021/12/27 04:45:31;;;;;;;17.95;10.27;;;0.50;99.90;;;;;;5055906;28;20017;-83
2021/12/27 04:47:57;;;;;;;18.13;10.52;;;0.50;99.90;;;;;;5055615;28;20527;-83
2021/12/27 04:50:23;;;;;;;15.13;9.27;;;0.50;99.90;;;;;;5055005;28;20037;-83
2021/12/27 04:52:53;;;;;;;14.38;8.75;;;0.40;99.90;;;;;;5035604;28;20075;-83
2021/12/27 04:55:23;;;;;;;16.20;9.15;;;0.40;99.90;;;;;;5036855;28;20450;-83
2021/12/27 04:57:49;;;;;;;14.50;8.57;;;0.40;99.90;;;;;;5035308;28;20481;-84
2021/12/27 05:00:16;;;;;;;13.18;7.85;;;0.50;99.90;;;;;;5035248;28;20600;-84
2021/12/27 05:02:41;;;;;;;14.00;8.63;;;0.50;99.90;;;;;;5035143;28;20120;-84
2021/12/27 05:05:07;;;;;;;13.55;8.38;;;0.50;99.90;;;;;;5036316;28;20067;-84
2021/12/27 05:07:34;;;;;;;14.80;9.15;;;0.50;99.90;;;;;;5035106;28;20095;-84
2021/12/27 05:10:00;;;;;;;13.68;7.97;;;0.50;99.90;;;;;;5035865;28;20032;-84
2021/12/27 05:12:26;;;;;;;11.63;7.78;;;0.50;99.90;;;;;;5034536;28;20374;-84
2021/12/27 05:14:52;;;;;;;12.20;7.88;;;0.40;99.90;;;;;;5035986;28;20104;-84
2021/12/27 05:17:18;;;;;;;13.20;7.70;;;0.50;99.90;;;;;;5034397;28;20030;-84
2021/12/27 05:19:44;;;;;;;14.80;8.80;;;0.40;99.90;;;;;;5035808;28;20032;-84
2021/12/27 05:22:10;;;;;;;13.60;8.27;;;0.40;99.90;;;;;;5034848;28;20059;-84
2021/12/27 05:24:36;;;;;;;12.43;7.65;;;0.40;99.90;;;;;;5034651;28;20504;-84
2021/12/27 05:27:02;;;;;;;11.93;7.40;;;0.40;99.90;;;;;;5034735;28;20076;-84
2021/12/27 05:29:28;;;;;;;11.70;7.25;;;0.40;99.90;;;;;;5034691;28;20121;-84
2021/12/27 05:31:57;;;;;;;11.20;7.22;;;0.40;99.90;;;;;;5035471;28;20057;-84
2021/12/27 05:34:24;;;;;;;12.73;7.50;;;0.40;99.90;;;;;;5034582;28;20112;-84
2021/12/27 05:36:50;;;;;;;11.30;7.22;;;0.40;99.90;;;;;;5034276;28;20504;-84
2021/12/27 05:39:22;;;;;;;11.30;6.90;;;0.50;99.90;;;;;;5034549;28;20065;-83
2021/12/27 05:41:48;;;;;;;9.93;6.80;;;0.50;99.90;;;;;;5035527;28;20022;-83
2021/12/27 05:44:15;;;;;;;10.57;6.40;;;0.40;99.90;;;;;;5034036;28;20022;-83
2021/12/27 05:46:41;;;;;;;11.60;7.45;;;0.40;99.90;;;;;;5035638;28;20049;-84
2021/12/27 05:49:07;;;;;;;11.30;7.20;;;0.40;99.90;;;;;;5033770;28;20029;-83
2021/12/27 05:51:33;;;;;;;12.10;6.55;;;0.40;99.90;;;;;;5035282;28;20029;-84
2021/12/27 05:53:59;;;;;;;12.50;7.43;;;0.40;99.90;;;;;;5033797;28;20021;-84
2021/12/27 05:56:24;;;;;;;11.10;6.97;;;0.50;99.90;;;;;;5050598;28;20029;-84
2021/12/27 05:58:50;;;;;;;11.48;6.85;;;0.50;99.90;;;;;;5033684;28;20026;-83
2021/12/27 06:01:16;;;;;;;9.27;6.28;;;0.50;99.90;;;;;;5050359;28;20164;-84
2021/12/27 06:03:41;;;;;;;11.60;7.63;;;0.40;99.90;;;;;;5035324;28;20025;-84
2021/12/27 06:06:09;;;;;;;12.70;7.00;;;0.50;99.90;;;;;;5035032;28;20033;-84
2021/12/27 06:08:35;;;;;;;12.43;7.47;;;0.50;99.90;;;;;;5050171;28;20393;-83
2021/12/27 06:11:01;;;;;;;11.98;7.25;;;0.50;99.90;;;;;;5033620;28;20026;-85
2021/12/27 06:13:26;;;;;;;12.60;7.10;;;0.50;99.90;;;;;;5034690;28;20029;-85
2021/12/27 06:15:52;;;;;;;12.88;7.60;;;0.50;99.90;;;;;;5035058;28;20025;-85
2021/12/27 06:18:17;;;;;;;12.20;7.25;;;0.50;99.90;;;;;;5034669;28;20022;-85
2021/12/27 06:20:43;;;;;;;10.98;6.53;;;0.50;99.90;;;;;;5033301;28;20030;-86
2021/12/27 06:23:09;;;;;;;10.70;6.82;;;0.50;99.90;;;;;;5034686;28;20105;-86
2021/12/27 06:25:34;;;;;;;11.98;6.80;;;0.50;99.90;;;;;;5034610;28;20053;-86
2021/12/27 06:28:00;;;;;;;13.80;8.05;;;0.50;99.90;;;;;;5033441;28;20032;-86
2021/12/27 06:30:26;;;;;;;13.77;7.30;;;0.50;99.90;;;;;;5034647;28;20362;-87
2021/12/27 06:32:52;;;;;;;12.85;7.43;;;0.50;99.90;;;;;;5037680;28;20106;-86
2021/12/27 06:35:18;;;;;;;11.80;7.40;;;0.50;99.90;;;;;;5036064;28;20081;-84
2021/12/27 06:37:45;;;;;;;11.25;6.90;;;0.50;99.90;;;;;;5033302;28;20025;-84
2021/12/27 06:40:13;;;;;;;12.80;6.82;;;0.50;99.90;;;;;;5034750;28;20021;-84
2021/12/27 06:42:39;;;;;;;13.57;7.72;;;0.50;99.90;;;;;;5033402;28;20018;-83
2021/12/27 06:45:05;;;;;;;14.05;8.32;;;0.50;99.90;;;;;;5033674;28;20022;-84
2021/12/27 06:47:31;;;;;;;13.68;7.63;;;0.50;99.90;;;;;;5033348;28;20021;-84
2021/12/27 06:49:57;;;;;;;12.40;7.13;;;0.40;99.90;;;;;;5049853;28;20032;-83
2021/12/27 06:52:24;;;;;;;12.35;7.20;;;0.40;99.90;;;;;;5034413;28;20512;-84
2021/12/27 06:54:50;;;;;;;12.02;6.80;;;0.40;99.90;;;;;;5032944;28;20072;-84
2021/12/27 06:57:18;;;;;;;11.88;7.53;;;0.30;99.90;;;;;;5033045;28;20084;-84
2021/12/27 06:59:44;;;;;;;11.75;7.28;;;0.30;99.90;;;;;;5032971;28;20021;-84
2021/12/27 07:02:11;;;;;;;13.07;8.35;;;0.30;99.90;;;;;;5048477;28;20025;-84
2021/12/27 07:04:36;;;;;;;13.82;8.40;;;0.30;99.90;;;;;;5052816;28;20481;-84
2021/12/27 07:07:03;;;;;;;12.52;8.18;;;0.30;99.90;;;;;;5052623;28;20116;-84
2021/12/27 07:09:29;;;;;;;12.52;7.60;;;0.30;99.90;;;;;;5052695;28;20017;-84
2021/12/27 07:11:55;;;;;;;14.18;7.75;;;0.30;99.90;;;;;;5054336;28;20025;-84
2021/12/27 07:14:21;;;;;;;13.48;7.82;;;0.30;99.90;;;;;;5054746;28;20082;-84
2021/12/27 07:16:47;;;;;;;14.05;8.43;;;0.30;99.90;;;;;;5053484;28;20078;-84
2021/12/27 07:19:12;;;;;;;14.57;8.93;;;0.30;99.90;;;;;;5053338;28;20127;-84
2021/12/27 07:21:38;;;;;;;17.20;10.10;;;0.30;99.90;;;;;;5053654;28;20499;-84
2021/12/27 07:24:04;;;;;;;24.98;13.00;;;0.30;99.90;;;;;;5053496;28;20029;-84
2021/12/27 07:26:30;;;;;;;18.15;10.98;;;0.30;99.90;;;;;;5053692;28;20039;-84
2021/12/27 07:28:56;;;;;;;15.40;9.93;;;0.30;99.90;;;;;;5053585;28;20481;-84
2021/12/27 07:31:22;;;;;;;14.82;9.02;;;0.30;99.90;;;;;;5053904;28;20029;-84
2021/12/27 07:33:48;;;;;;;14.05;8.90;;;0.30;99.90;;;;;;5053734;28;20131;-84
2021/12/27 07:36:13;;;;;;;15.73;9.02;;;0.20;99.90;;;;;;5053770;28;20021;-84
2021/12/27 07:38:40;;;;;;;19.02;10.45;;;0.20;99.90;;;;;;5053534;28;20024;-84
2021/12/27 07:41:06;;;;;;;14.15;8.73;;;0.20;99.90;;;;;;5053953;28;20025;-84
2021/12/27 07:43:32;;;;;;;14.75;8.98;;;0.20;99.90;;;;;;5055501;28;20040;-84
2021/12/27 07:45:58;;;;;;;14.40;8.80;;;0.20;99.90;;;;;;5054005;28;20025;-84
2021/12/27 07:48:24;;;;;;;16.13;8.93;;;0.20;99.90;;;;;;5054302;28;20054;-84
2021/12/27 07:50:49;;;;;;;14.75;8.50;;;0.20;99.90;;;;;;5055089;28;20465;-84
2021/12/27 07:53:16;;;;;;;17.05;9.13;;;0.20;99.90;;;;;;5053674;28;20032;-84
2021/12/27 07:55:42;;;;;;;14.73;8.63;;;0.20;99.90;;;;;;5057416;28;20028;-84
2021/12/27 07:58:08;;;;;;;18.30;8.23;;;0.20;99.90;;;;;;5058282;28;20021;-84
2021/12/27 08:00:34;;;;;;;12.90;7.97;;;0.20;99.90;;;;;;5058479;28;20037;-84
2021/12/27 08:03:00;;;;;;;14.20;8.55;;;0.10;99.90;;;;;;5058956;28;20138;-84
2021/12/27 08:05:26;;;;;;;11.75;7.03;;;0.10;99.90;;;;;;5064695;28;20047;-84
2021/12/27 08:07:52;;;;;;;15.38;8.50;;;0.20;99.90;;;;;;5080486;28;20029;-84
2021/12/27 08:10:18;;;;;;;13.45;7.90;;;0.20;99.90;;;;;;5080643;28;20099;-84
2021/12/27 08:12:44;;;;;;;12.43;7.55;;;0.20;99.90;;;;;;5078426;28;20059;-84
2021/12/27 08:15:11;;;;;;;18.48;10.10;;;0.20;99.90;;;;;;5079785;28;20035;-86
2021/12/27 08:17:38;;;;;;;18.00;9.63;;;0.30;99.90;;;;;;5075504;28;20027;-86
2021/12/27 08:20:06;;;;;;;14.18;7.95;;;0.30;99.90;;;;;;5075444;28;20031;-87
2021/12/27 08:22:32;;;;;;;11.43;7.28;;;0.30;99.90;;;;;;5062011;28;20021;-87
2021/12/27 08:24:58;;;;;;;13.27;7.25;;;0.30;99.90;;;;;;5056670;28;20028;-87
2021/12/27 08:27:26;;;;;;;11.48;6.22;;;0.30;99.90;;;;;;5056770;28;20021;-87
2021/12/27 08:29:51;;;;;;;14.95;7.35;;;0.40;99.90;;;;;;5060174;28;20024;-85
2021/12/27 08:32:17;;;;;;;15.10;8.60;;;0.40;99.90;;;;;;5079198;28;20032;-85
2021/12/27 08:34:43;;;;;;;16.80;9.10;;;0.50;99.90;;;;;;5059420;28;20027;-84
2021/12/27 08:37:09;;;;;;;16.10;8.68;;;0.40;99.90;;;;;;5058090;28;20053;-85
2021/12/27 08:39:35;;;;;;;16.83;8.45;;;0.40;99.90;;;;;;5058383;28;20039;-84
2021/12/27 08:42:03;;;;;;;20.25;8.55;;;0.40;99.90;;;;;;5058418;28;20397;-84
2021/12/27 08:44:29;;;;;;;13.55;8.15;;;0.30;99.90;;;;;;5055530;28;20048;-86
2021/12/27 08:46:55;;;;;;;15.10;8.43;;;0.30;99.90;;;;;;5056441;28;20473;-87
2021/12/27 08:49:20;;;;;;;13.63;8.23;;;0.30;99.90;;;;;;5055350;28;20139;-86
2021/12/27 08:51:46;;;;;;;11.43;7.60;;;0.30;99.90;;;;;;5057674;28;20469;-84
2021/12/27 08:54:13;;;;;;;15.27;8.35;;;0.40;99.90;;;;;;5056333;28;20021;-84
2021/12/27 08:56:39;;;;;;;16.27;9.55;;;0.40;99.90;;;;;;5059368;28;20381;-84
2021/12/27 08:59:05;;;;;;;17.35;9.25;;;0.50;99.90;;;;;;5057598;28;20028;-84
2021/12/27 09:01:31;;;;;;;17.15;9.32;;;0.50;99.90;;;;;;5070960;28;20016;-84
2021/12/27 09:03:57;;;;;;;16.55;8.80;;;0.60;99.90;;;;;;5056159;28;20028;-86
2021/12/27 09:06:23;;;;;;;15.95;8.82;;;0.60;99.90;;;;;;5056193;28;20029;-86
2021/12/27 09:08:48;;;;;;;17.33;9.07;;;0.60;99.90;;;;;;5054937;28;20071;-86
2021/12/27 09:11:15;;;;;;;15.80;8.55;;;0.70;99.90;;;;;;5055853;28;20066;-86
2021/12/27 09:13:40;;;;;;;14.95;8.63;;;0.70;99.90;;;;;;5054618;28;20550;-86
2021/12/27 09:16:09;;;;;;;14.23;8.20;;;0.80;99.90;;;;;;5054574;28;20025;-87
2021/12/27 09:18:35;;;;;;;13.60;7.97;;;0.80;99.90;;;;;;5054308;28;20025;-87
2021/12/27 09:21:02;;;;;;;14.07;8.68;;;0.80;99.90;;;;;;5055623;28;20074;-87
2021/12/27 09:23:28;;;;;;;17.23;9.43;;;0.90;99.90;;;;;;5055568;28;20110;-86
2021/12/27 09:25:54;;;;;;;16.08;10.05;;;0.90;99.90;;;;;;5055513;28;20032;-87
2021/12/27 09:28:20;;;;;;;13.02;8.23;;;0.90;99.90;;;;;;5054176;28;20113;-86
2021/12/27 09:30:45;;;;;;;17.02;9.52;;;1.00;99.90;;;;;;5054147;28;20052;-87
2021/12/27 09:33:11;;;;;;;18.38;10.23;;;1.00;99.90;;;;;;5055504;28;20060;-86
2021/12/27 09:35:37;;;;;;;19.25;10.13;;;1.00;99.90;;;;;;5054113;28;20082;-86
2021/12/27 09:38:04;;;;;;;17.67;9.07;;;1.00;99.90;;;;;;5054008;28;20036;-86
2021/12/27 09:40:30;;;;;;;17.58;9.50;;;1.00;99.90;;;;;;5053871;28;20025;-86
2021/12/27 09:42:56;;;;;;;16.35;9.30;;;1.00;99.90;;;;;;5053902;28;20025;-86
2021/12/27 09:45:22;;;;;;;16.58;8.65;;;1.00;99.90;;;;;;5053897;28;20059;-86
2021/12/27 09:47:50;;;;;;;19.77;10.18;;;1.00;99.90;;;;;;5055374;28;20021;-86
2021/12/27 09:50:27;;;;;;;18.60;9.65;;;1.00;99.90;;;;;;5055086;28;20017;-86
2021/12/27 09:52:53;;;;;;;17.88;9.70;;;1.10;99.90;;;;;;5053939;28;20119;-86
2021/12/27 09:55:19;;;;;;;15.65;8.93;;;1.10;99.90;;;;;;5055259;28;20052;-86
2021/12/27 09:57:45;;;;;;;20.33;9.88;;;1.10;99.90;;;;;;5056107;28;20438;-84
2021/12/27 10:00:11;;;;;;;14.50;8.77;;;1.10;99.90;;;;;;5058573;28;20119;-84
2021/12/27 10:02:39;;;;;;;20.17;10.85;;;1.10;99.90;;;;;;5057385;28;20021;-84
2021/12/27 10:05:06;;;;;;;23.17;11.00;;;1.10;99.90;;;;;;5056574;28;20053;-84
2021/12/27 10:07:34;;;;;;;16.60;9.65;;;1.10;99.90;;;;;;5056110;28;20112;-84
2021/12/27 10:10:00;;;;;;;17.38;9.73;;;1.10;99.90;;;;;;5054425;28;20024;-83
2021/12/27 10:12:27;;;;;;;15.30;9.00;;;1.20;99.90;;;;;;5070124;28;20036;-86
2021/12/27 10:15:01;;;;;;;22.63;10.85;;;1.20;99.90;;;;;;5054657;28;20029;-86
2021/12/27 10:17:30;;;;;;;18.70;10.05;;;1.20;99.90;;;;;;5055505;28;20432;-85
2021/12/27 10:20:18;;;;;;;16.08;9.35;;;1.20;99.90;;;;;;5053087;28;20128;-85
2021/12/27 10:22:50;;;;;;;20.20;9.88;;;1.10;99.90;;;;;;5053934;28;20048;-85
2021/12/27 10:25:24;;;;;;;15.55;9.45;;;1.10;99.90;;;;;;5053088;28;20024;-85
2021/12/27 10:27:53;;;;;;;16.65;9.05;;;1.10;99.90;;;;;;5052984;28;20031;-86
2021/12/27 10:30:25;;;;;;;15.45;9.23;;;1.10;99.90;;;;;;5052236;28;20025;-86
2021/12/27 10:33:08;;;;;;;15.82;9.13;;;1.20;99.90;;;;;;5052811;28;20028;-86
2021/12/27 10:35:53;;;;;;;17.65;9.43;;;1.20;99.90;;;;;;5054105;28;20086;-85
2021/12/27 10:38:36;;;;;;;18.88;10.45;;;1.30;99.90;;;;;;5056318;28;20033;-83
2021/12/27 10:41:10;;;;;;;19.55;11.15;;;1.30;99.90;;;;;;5036806;28;20108;-82
2021/12/27 10:43:38;;;;;;;17.83;10.85;;;1.30;99.90;;;;;;5036614;28;20536;-82
2021/12/27 10:46:06;;;;;;;22.23;12.10;;;1.30;99.90;;;;;;5036237;28;20024;-82
2021/12/27 10:48:43;;;;;;;21.30;12.43;;;1.40;99.90;;;;;;5035895;28;20121;-83
2021/12/27 10:51:09;;;;;;;25.02;12.50;;;1.40;99.90;;;;;;5050152;28;20112;-83
2021/12/27 10:53:47;;;;;;;24.20;13.80;;;1.40;99.90;;;;;;5049613;28;20030;-83
2021/12/27 10:56:13;;;;;;;28.63;12.10;;;1.40;99.90;;;;;;5052758;28;20150;-84
2021/12/27 10:58:54;;;;;;;20.25;11.73;;;1.40;99.90;;;;;;5052723;28;20036;-84
2021/12/27 11:01:22;;;;;;;20.02;11.63;;;1.40;99.90;;;;;;5053706;28;20422;-83
2021/12/27 11:03:55;;;;;;;16.55;9.63;;;1.40;99.90;;;;;;5052497;28;20021;-85
2021/12/27 11:06:27;;;;;;;20.92;10.70;;;1.40;99.90;;;;;;5053676;28;20053;-84
2021/12/27 11:08:53;;;;;;;16.20;10.05;;;1.40;99.90;;;;;;5053344;28;20504;-83
2021/12/27 11:11:23;;;;;;;18.73;10.93;;;1.50;99.90;;;;;;5054010;28;20033;-83
2021/12/27 11:13:52;;;;;;;17.80;10.38;;;1.60;99.90;;;;;;5053365;28;20435;-83
2021/12/27 11:16:19;;;;;;;17.77;10.30;;;1.80;99.90;;;;;;5052873;28;20506;-83
2021/12/27 11:18:45;;;;;;;15.77;9.82;;;1.90;99.90;;;;;;5069367;28;20056;-83
2021/12/27 11:21:16;;;;;;;14.70;9.27;;;2.00;99.90;;;;;;5052595;28;20035;-83
2021/12/27 11:23:43;;;;;;;14.93;9.50;;;2.10;99.90;;;;;;5053311;28;20551;-83
2021/12/27 11:26:11;;;;;;;16.45;9.48;;;2.20;99.90;;;;;;5052793;28;20028;-83
2021/12/27 11:28:42;;;;;;;15.27;9.95;;;2.20;99.90;;;;;;5043700;28;20053;-83
2021/12/27 11:31:26;;;;;;;23.08;13.05;;;2.30;99.90;;;;;;5033792;28;20037;-83
2021/12/27 11:34:01;;;;;;;21.67;12.07;;;2.40;99.90;;;;;;5032741;28;20486;-83
2021/12/27 11:36:29;;;;;;;21.95;11.65;;;2.40;99.90;;;;;;5049226;28;20064;-83
2021/12/27 11:38:56;;;;;;;22.73;12.57;;;2.50;99.90;;;;;;5033598;28;20366;-83
2021/12/27 11:41:34;;;;;;;27.05;16.50;;;2.60;99.90;;;;;;5032395;28;20126;-83
2021/12/27 11:44:07;;;;;;;25.20;13.93;;;2.70;99.90;;;;;;5033583;28;20018;-83
2021/12/27 11:46:54;;;;;;;19.60;11.40;;;2.70;99.90;;;;;;5033628;28;20496;-83
2021/12/27 11:49:59;;;;;;;17.75;11.05;;;2.80;99.90;;;;;;5019587;28;20179;-83
2021/12/27 11:52:34;;;;;;;22.02;13.20;;;2.90;99.90;;;;;;5046402;23;20045;-73
2021/12/27 11:55:14;;;;;;;20.25;12.32;;;2.90;99.90;;;;;;5033487;28;20096;-73
2021/12/27 11:57:49;;;;;;;20.20;13.00;;;3.00;99.90;;;;;;5013739;28;20014;-75
2021/12/27 12:00:20;;;;;;;22.88;12.93;;;3.00;99.90;;;;;;5013385;28;20489;-73
2021/12/27 12:02:51;;;;;;;19.98;11.77;;;3.00;99.90;;;;;;5013329;28;20081;-73
2021/12/27 12:05:42;;;;;;;17.77;11.35;;;3.10;99.90;;;;;;5040038;23;20141;-82
2021/12/27 12:08:10;;;;;;;20.95;11.68;;;3.10;99.90;;;;;;5033121;28;20502;-82
2021/12/27 12:10:37;;;;;;;19.08;11.10;;;3.10;99.90;;;;;;5034149;28;20037;-81
2021/12/27 12:13:26;;;;;;;27.98;14.18;;;3.10;99.90;;;;;;5034385;28;20021;-81
2021/12/27 12:16:18;;;;;;;21.67;12.35;;;3.20;99.90;;;;;;5033659;28;20388;-81
2021/12/27 12:18:53;;;;;;;19.73;11.82;;;3.20;99.90;;;;;;5012440;28;20068;-81
2021/12/27 12:21:34;;;;;;;18.70;11.48;;;3.20;99.90;;;;;;5012369;28;20034;-81
2021/12/27 12:24:01;;;;;;;21.92;12.60;;;3.30;99.90;;;;;;5013787;28;20505;-81
2021/12/27 12:26:30;;;;;;;20.75;13.07;;;3.30;99.90;;;;;;5013828;28;20121;-81
2021/12/27 12:29:03;;;;;;;28.70;15.50;;;3.30;99.90;;;;;;5014729;28;20096;-81
2021/12/27 12:31:34;;;;;;;26.25;15.88;;;3.30;99.90;;;;;;5014183;28;20096;-81
2021/12/27 12:34:19;;;;;;;25.38;15.25;;;3.30;99.90;;;;;;5027297;28;20030;-81
2021/12/27 12:36:53;;;;;;;24.77;15.27;;;3.40;99.90;;;;;;5013175;28;20099;-82
2021/12/27 12:39:20;;;;;;;24.88;13.85;;;3.40;99.90;;;;;;5032154;28;20022;-82
2021/12/27 12:41:48;;;;;;;24.73;13.50;;;3.50;99.90;;;;;;5015801;28;20492;-82
2021/12/27 12:44:14;;;;;;;26.55;14.88;;;3.50;99.90;;;;;;5016696;28;20079;-82
2021/12/27 12:46:45;;;;;;;25.23;14.98;;;3.60;99.90;;;;;;5018076;28;20105;-82
2021/12/27 12:49:11;;;;;;;;;;;3.60;99.90;;;;;;5017279;28;20076;-82